Thursday, October 19, 2017, 7:02 AM EDT
Back to Local

KOWD, Norwood Memorial Airport

Location: Norwood, MA, United States Lat: 42.183
Local Time: 7:02 AM EDT (11:02 GMT) Lon: -71.167
Time Zone: US/Eastern Elev: 49 ft

Show me the last for .
Show Coded

Time T Td Feel RH Dir Speed Gust Alt SLP Vis Weather Sky Remarks
2017-10-19 06:30 37 36 - 95 - Calm - 30.23 - 10 BKN003 None
2017-10-19 06:06 38 36 - 92 - Calm - 30.23 - 10 BKN005 None
2017-10-19 05:53 38 36 - 92 - Calm - 30.24 30.23 10 FEW005 None
2017-10-19 05:32 37 35 - 92 - Calm - 30.24 - 9 SCT006 None
2017-10-19 05:25 37 36 - 95 - Calm - 30.24 - 2 BR SCT006 Variable visibility
2017-10-19 05:16 38 36 - 92 - Calm - 30.24 - 1 BR BKN006 None
2017-10-19 05:05 37 36 - 95 - Calm - 30.24 - 2 BR FEW007 Variable visibility
2017-10-19 04:53 37 36 - 95 - Calm - 30.24 30.24 10 CLR None
2017-10-19 04:37 39 37 - 92 - Calm - 30.24 - 4 BR FEW004 None
2017-10-19 04:35 39 37 - 92 - Calm - 30.24 - 1 BR FEW004 None
2017-10-19 04:23 39 37 - 92 - Calm - 30.24 - 0 BR VV004 None
2017-10-19 04:20 38 37 - 96 - Calm - 30.24 - 1 BR FEW003 None
2017-10-19 03:59 38 36 - 92 - Calm - 30.24 - 3 BR SCT003 None
2017-10-19 03:57 38 36 - 92 - Calm - 30.24 - 1 BR SCT003 None
2017-10-19 03:53 38 37 - 96 - Calm - 30.24 30.24 0 FG VV003 None
2017-10-19 03:48 37 37 - 100 - Calm - 30.24 - 0 FG VV004 None
2017-10-19 03:37 37 36 - 95 - Calm - 30.24 - 0 BR CLR None
2017-10-19 03:10 40 38 - 92 - Calm - 30.24 - 3 BR SCT002 None
2017-10-19 03:08 41 38 - 88 - Calm - 30.25 - 1 BR SCT002 None
2017-10-19 02:53 39 37 - 92 - Calm - 30.25 30.25 0 FG VV002 None
2017-10-19 02:40 38 36 - 92 - Calm - 30.26 - 0 FG VV002 None
2017-10-19 02:36 38 36 - 92 - Calm - 30.26 - 1 BR CLR None
2017-10-19 01:53 39 37 - 92 - Calm - 30.26 30.26 10 CLR 6-hr Min Temp (2am): 39.0°F
6-hr Max Temp (2am): 48.0°F
2017-10-19 01:21 42 40 - 91 - Calm - 30.26 - 5 BR FEW002 None
2017-10-19 01:19 42 40 - 91 - Calm - 30.26 - 1 BR FEW002 Variable visibility
2017-10-19 01:04 39 38 - 95 - Calm - 30.26 - 0 FG VV002 None
2017-10-19 00:57 39 38 - 95 - Calm - 30.26 - 1 BR VV002 None
2017-10-19 00:53 40 38 - 92 - Calm - 30.26 30.26 2 BR FEW002 24-hr Min Temp (1am): 37.0°F
24-hr Max Temp (1am): 73.9°F
2017-10-19 00:18 40 39 - 96 - Calm - 30.26 - 0 BR CLR None
2017-10-18 23:53 41 39 - 92 - Calm - 30.27 30.26 10 CLR None
2017-10-18 23:41 42 40 - 91 - Calm - 30.27 - 10 CLR None
2017-10-18 23:32 44 43 - 95 - Calm - 30.27 - 1 BR CLR None
2017-10-18 23:19 40 39 - 96 - Calm - 30.27 - 0 BR VV002 Variable visibility
2017-10-18 23:12 45 42 - 89 - Calm - 30.27 - 1 BR CLR None
2017-10-18 22:53 43 41 - 92 - Calm - 30.27 30.27 10 CLR None
2017-10-18 21:53 47 44 - 89 - Calm - 30.28 30.27 10 CLR None
2017-10-18 20:53 48 45 - 89 - Calm - 30.27 30.27 10 CLR None
2017-10-18 19:53 49 44 - 83 - Calm - 30.26 30.26 10 CLR 6-hr Min Temp (8pm): 48.0°F
6-hr Max Temp (8pm): 73.9°F
2017-10-18 18:53 54 46 - 74 - Calm - 30.25 30.24 10 CLR None
2017-10-18 17:53 65 44 - 46 - Calm - 30.23 30.23 10 CLR None
2017-10-18 16:53 72 40 - 31 250° 7 - 30.22 30.21 10 CLR None
2017-10-18 15:53 73 39 - 29 240° 7 - 30.21 30.21 10 CLR None
2017-10-18 14:53 74 40 - 29 260° 6 - 30.22 30.21 10 CLR None
2017-10-18 13:53 72 42 - 34 Variable 3 - 30.22 30.21 10 CLR 6-hr Min Temp (2pm): 46.9°F
6-hr Max Temp (2pm): 73.0°F
2017-10-18 12:53 72 44 - 36 260° 9 - 30.24 30.24 10 CLR None
2017-10-18 11:53 69 46 - 43 250° 8 - 30.27 30.27 10 CLR None
2017-10-18 10:53 65 45 - 48 230° 7 - 30.27 30.27 10 CLR None
2017-10-18 09:53 59 43 - 55 230° 5 - 30.27 30.27 10 CLR None
2017-10-18 08:53 54 41 - 61 220° 6 - 30.26 30.26 10 CLR None
2017-10-18 07:53 47 40 - 76 - Calm - 30.24 30.24 10 CLR 6-hr Min Temp (8am): 37.0°F
6-hr Max Temp (8am): 48.9°F

Support USWX by starting your Amazon purchase here.